• Join FlightAware (Why Join?)
  • Login
  • US Flag 
03:46AM EDT


 

Airport Tracker/Info


-or-


 

Live Flight TrackerFlight Track Log ✈ N517CP ✈ 30-Jul-2013 ✈ KIAH - T92

Flight Track Log - Related Links

Times and Time Zones

All times are in EDT time to prevent confusion due to time zone crossing. See the N517CP flight status page for this flight to view local times or setup timezone preferences in your user account.

Time Position Orientation Groundspeed Altitude Reporting Facility
EDT Latitude Longitude Course Direction KTS MPH feet Rate Location/Type
10:58AM 29.9503 -95.3786 223° Southwest 117 135 1,700  Level Houston Center
10:59AM 29.9364 -95.4117 244° Southwest 125 144 2,500 600 Climbing Houston Center
11:00AM 29.9231 -95.4494 248° West 126 145 3,000 180 Climbing Houston Center
11:01AM 29.9025 -95.5000 245° Southwest 156 180 3,000  Level Houston Center
11:02AM 29.8958 -95.5442 260° West 162 186 3,000  Level Houston Center
11:03AM 29.8989 -95.5667 279° West 152 175 3,000  Level Houston Center
11:03AM 29.9006 -95.5944 274° West 152 175 3,000 60 Level Houston Center
11:04AM 29.9014 -95.6161 273° West 154 177 3,100 660 Climbing Houston Center
11:04AM 29.9025 -95.6400 273° West 143 165 3,700 960 Climbing Houston Center
11:05AM 29.9053 -95.6600 279° West 144 166 4,100 600 Climbing Houston Center
11:06AM 29.9067 -95.7011 272° West 132 152 4,700 540 Climbing Houston Center
11:07AM 29.9100 -95.7436 275° West 134 154 5,300 540 Climbing Houston Center
11:08AM 29.9117 -95.7869 273° West 135 155 5,900 540 Climbing Houston Center
11:09AM 29.9158 -95.8403 275° West 139 160 6,500 480 Climbing Houston Center
11:10AM 29.9183 -95.8844 274° West 139 160 6,900 420 Climbing Houston Center
11:11AM 29.9208 -95.9306 274° West 144 166 7,400 420 Climbing Houston Center
11:12AM 29.9236 -95.9769 274° West 145 167 7,800 240 Climbing Houston Center
11:13AM 29.9256 -96.0319 272° West 150 173 8,000 60 Climbing Houston Center
11:14AM 29.9292 -96.0847 275° West 163 188 8,000  Level Houston Center
11:15AM 29.9328 -96.1381 274° West 167 192 8,000  Level Houston Center
11:16AM 29.9358 -96.1908 274° West 166 191 8,000  Level Houston Center
11:17AM 29.9378 -96.2447 272° West 168 193 8,000  Level Houston Center
11:18AM 29.9422 -96.3078 275° West 165 190 8,000  Level Houston Center
11:19AM 29.9456 -96.3606 274° West 165 190 8,000  Level Houston Center
11:20AM 29.9472 -96.4136 272° West 166 191 8,000  Level Houston Center
11:21AM 29.9514 -96.4667 275° West 166 191 8,000  Level Houston Center
11:23AM 29.9531 -96.5203 272° West 167 192 8,000  Level Houston Center
11:24AM 29.9594 -96.5722 278° West 166 191 8,000  Level Houston Center
11:25AM 29.9856 -96.6303 297° West 171 197 8,000  Level Houston Center
11:26AM 30.0067 -96.6783 297° West 168 193 8,000  Level Houston Center
11:27AM 30.0289 -96.7269 298° West 171 197 8,000  Level Houston Center
11:28AM 30.0494 -96.7750 296° West 169 194 8,000  Level Houston Center
11:29AM 30.0706 -96.8236 297° West 170 196 8,000  Level Houston Center
11:30AM 30.0922 -96.8689 299° West 171 197 8,000  Level Houston Center
11:31AM 30.1181 -96.9311 296° West 170 196 8,000  Level Houston Center
11:32AM 30.1400 -96.9803 297° West 170 196 8,000 -60 Level Houston Center
11:33AM 30.1614 -97.0281 297° West 168 193 7,900 -300 Descending Houston Center
11:34AM 30.1847 -97.0825 296° West 183 211 7,400 -540 Descending Houston Center
11:35AM 30.2092 -97.1364 298° West 186 214 6,900 -540 Descending Houston Center
11:36AM 30.2364 -97.2011 296° West 189 217 6,300 -480 Descending Houston Center
11:37AM 30.2592 -97.2550 296° West 186 214 6,000 -180 Descending Houston Center
11:38AM 30.2814 -97.3058 297° West 178 205 6,000  Level Houston Center
11:39AM 30.3031 -97.3547 297° West 171 197 6,000  Level Houston Center
11:40AM 30.3244 -97.4047 296° West 171 197 6,000  Level Houston Center
11:41AM 30.3458 -97.4544 297° West 170 196 6,000  Level Houston Center
11:42AM 30.3531 -97.5083 279° West 188 216 6,000  Level Houston Center
11:43AM 30.3606 -97.5592 280° West 167 192 6,000  Level Houston Center
11:44AM 30.3694 -97.6192 280° West 161 185 6,000  Level Houston Center
11:45AM 30.3656 -97.6703 265° West 158 182 6,000  Level Houston Center
11:46AM 30.3683 -97.7053 275° West 162 186 6,000  Level Houston Center
11:47AM 30.3842 -97.7739 285° West 167 192 6,000  Level Houston Center
11:48AM 30.3967 -97.8244 286° West 164 189 6,000  Level Houston Center
11:49AM 30.4108 -97.8778 287° West 167 192 6,000  Level Houston Center
11:50AM 30.4183 -97.9100 285° West 168 193 6,000  Level Houston Center
11:52AM 30.4389 -97.9894 287° West 166 191 6,000  Level Houston Center
11:53AM 30.4522 -98.0411 287° West 166 191 6,000  Level Houston Center
11:54AM 30.4642 -98.0925 285° West 164 189 6,000  Level Houston Center
11:55AM 30.4775 -98.1442 287° West 164 189 6,000  Level Houston Center
11:56AM 30.4897 -98.1950 286° West 163 188 6,000  Level Houston Center